Time;durP1;ratioP1;P1;durP2;ratioP2;P2;SDS_P1;SDS_P2;PMS_P1;PMS_P2;Temp;Humidity;BMP_temperature;BMP_pressure;BME280_temperature;BME280_humidity;BME280_pressure;Samples;Min_cycle;Max_cycle;Signal;HPM_P1;HPM_P2
2023/09/27 00:01:32;;;;;;;4.05;0.90;;;;;;;11.98;89.08;100678.97;5009368;28;20140;-48
2023/09/27 00:03:59;;;;;;;5.55;1.20;;;;;;;11.98;89.08;100670.66;5010658;28;20038;-44
2023/09/27 00:06:26;;;;;;;4.95;0.95;;;;;;;11.98;89.09;100673.44;5011128;28;20038;-45
2023/09/27 00:08:53;;;;;;;2.83;0.95;;;;;;;11.98;89.11;100673.44;5009340;28;20057;-45
2023/09/27 00:11:20;;;;;;;1.75;0.68;;;;;;;11.97;89.53;100663.47;5010119;28;20500;-45
2023/09/27 00:13:47;;;;;;;3.92;1.05;;;;;;;11.98;89.32;100667.88;5009913;28;20456;-45
2023/09/27 00:16:13;;;;;;;4.60;1.38;;;;;;;11.98;89.19;100656.78;5009222;28;20046;-45
2023/09/27 00:18:40;;;;;;;2.75;0.85;;;;;;;11.97;89.30;100666.25;5010780;28;20498;-45
2023/09/27 00:21:07;;;;;;;3.40;0.93;;;;;;;11.97;89.25;100660.69;5007302;28;20038;-46
2023/09/27 00:23:34;;;;;;;3.35;0.90;;;;;;;11.98;89.35;100667.88;5011169;28;20050;-45
2023/09/27 00:26:01;;;;;;;5.75;0.80;;;;;;;11.99;89.34;100675.06;5010424;28;20192;-45
2023/09/27 00:28:27;;;;;;;3.45;1.08;;;;;;;11.97;89.25;100660.69;5010928;28;20504;-44
2023/09/27 00:30:55;;;;;;;2.20;1.00;;;;;;;11.97;89.43;100660.69;5009200;28;20042;-45
2023/09/27 00:33:22;;;;;;;1.88;0.88;;;;;;;11.96;89.55;100665.47;5009727;28;20049;-45
2023/09/27 00:35:49;;;;;;;4.95;0.85;;;;;;;11.94;89.68;100667.00;5009948;28;20142;-44
2023/09/27 00:38:16;;;;;;;4.43;0.98;;;;;;;11.93;89.53;100676.47;4986578;28;20401;-47
2023/09/27 00:40:45;;;;;;;3.33;1.08;;;;;;;11.91;89.68;100674.06;5010111;28;20050;-46
2023/09/27 00:43:28;;;;;;;7.28;1.38;;;;;;;11.90;89.74;100671.63;5010119;28;20038;-45
2023/09/27 00:46:04;;;;;;;4.40;1.05;;;;;;;11.88;89.64;100657.31;5009157;28;20050;-45
2023/09/27 00:48:32;;;;;;;2.95;1.02;;;;;;;11.83;89.75;100652.84;5010368;28;20046;-46
2023/09/27 00:51:00;;;;;;;2.25;1.00;;;;;;;11.82;90.02;100647.63;5008771;28;20061;-45
2023/09/27 00:53:30;;;;;;;3.22;0.90;;;;;;;11.82;90.24;100650.41;5010077;28;20512;-47
2023/09/27 00:55:57;;;;;;;4.20;0.82;;;;;;;11.80;90.19;100650.78;5010268;28;20128;-45
2023/09/27 00:58:25;;;;;;;3.33;1.58;;;;;;;11.79;90.55;100651.91;5009774;28;20076;-45
2023/09/27 01:00:52;;;;;;;3.42;1.30;;;;;;;11.77;90.44;100645.13;5008814;28;20408;-47
2023/09/27 01:03:19;;;;;;;2.45;1.00;;;;;;;11.73;90.57;100638.69;5008776;28;20038;-47
2023/09/27 01:05:47;;;;;;;3.67;0.75;;;;;;;11.71;90.61;100639.03;5008993;28;20073;-45
2023/09/27 01:08:14;;;;;;;6.25;1.73;;;;;;;11.70;90.58;100645.75;5008993;28;20034;-45
2023/09/27 01:10:41;;;;;;;3.70;0.80;;;;;;;11.69;90.49;100629.44;5008270;28;20085;-48
2023/09/27 01:13:08;;;;;;;2.53;1.10;;;;;;;11.67;90.31;100617.88;5007790;28;20045;-50
2023/09/27 01:15:35;;;;;;;8.18;1.05;;;;;;;11.65;90.32;100623.75;5008611;28;20100;-45
2023/09/27 01:18:02;;;;;;;5.57;0.77;;;;;;;11.63;90.16;100607.50;5008906;28;20069;-45
2023/09/27 01:20:32;;;;;;;3.50;0.80;;;;;;;11.63;90.32;100607.50;5008425;28;20420;-47
2023/09/27 01:23:01;;;;;;;1.83;0.70;;;;;;;11.62;90.28;100605.09;5000126;28;20053;-45
2023/09/27 01:25:34;;;;;;;4.63;0.88;;;;;;;11.61;90.24;100601.50;5008486;28;20058;-47
2023/09/27 01:28:02;;;;;;;;;;;;;;;11.63;90.22;100598.34;5009297;28;20042;-45
2023/09/27 01:30:33;;;;;;;3.28;1.05;;;;;;;11.62;89.73;100594.78;5008813;28;20279;-45
2023/09/27 01:33:06;;;;;;;4.18;0.77;;;;;;;11.62;89.89;100592.00;5007673;28;20132;-45
2023/09/27 01:35:34;;;;;;;3.28;0.90;;;;;;;11.63;89.87;100596.41;5008401;28;20495;-45
2023/09/27 01:38:02;;;;;;;4.57;1.00;;;;;;;11.63;89.94;100593.63;5009071;28;20506;-48
2023/09/27 01:40:30;;;;;;;5.28;0.90;;;;;;;11.65;89.75;100598.03;5008662;28;20060;-45
2023/09/27 01:43:02;;;;;;;2.33;1.10;;;;;;;11.67;89.65;100592.91;5008696;28;20042;-45
2023/09/27 01:45:30;;;;;;;4.05;0.57;;;;;;;11.69;89.66;100585.06;5009339;28;20535;-45
2023/09/27 01:47:57;;;;;;;3.95;0.85;;;;;;;11.69;89.88;100598.94;5010512;28;20038;-48
2023/09/27 01:50:25;;;;;;;1.95;0.70;;;;;;;11.67;89.83;100590.97;5008761;28;20096;-45
2023/09/27 01:52:53;;;;;;;2.70;0.93;;;;;;;11.66;90.17;100588.53;5007754;28;20049;-46
2023/09/27 01:55:22;;;;;;;5.90;1.10;;;;;;;11.66;90.22;100580.22;5008583;28;20049;-46
2023/09/27 01:57:49;;;;;;;4.10;0.70;;;;;;;11.65;90.23;100575.84;5008159;28;20061;-45
2023/09/27 02:00:18;;;;;;;2.80;0.90;;;;;;;11.65;90.28;100573.06;5007577;28;20496;-45
2023/09/27 02:02:48;;;;;;;4.97;1.15;;;;;;;11.62;90.21;100561.50;5009846;28;20057;-47
2023/09/27 02:05:15;;;;;;;1.83;0.90;;;;;;;11.65;90.26;100564.75;5011190;28;20048;-45
2023/09/27 02:07:42;;;;;;;6.15;1.50;;;;;;;11.66;90.40;100569.13;5012215;28;20053;-45
2023/09/27 02:10:10;;;;;;;9.25;1.10;;;;;;;11.66;90.48;100574.66;5011355;28;20050;-45
2023/09/27 02:12:38;;;;;;;7.28;1.20;;;;;;;11.67;90.29;100573.50;5010793;28;20793;-45
2023/09/27 02:15:06;;;;;;;5.28;0.98;;;;;;;11.67;90.12;100562.41;5012118;28;20041;-45
2023/09/27 02:17:35;;;;;;;5.28;0.80;;;;;;;11.66;90.19;100555.25;5011007;28;20046;-46
2023/09/27 02:20:07;;;;;;;3.45;1.30;;;;;;;11.67;90.25;100543.00;5011756;28;20488;-45
2023/09/27 02:22:35;;;;;;;5.97;1.15;;;;;;;11.68;90.13;100558.47;4999502;28;20050;-45
2023/09/27 02:25:02;;;;;;;7.07;1.15;;;;;;;11.70;90.07;100558.97;5012172;28;20046;-45
2023/09/27 02:27:29;;;;;;;8.50;2.72;;;;;;;11.74;90.14;100557.06;5012639;28;20475;-44
2023/09/27 02:29:56;;;;;;;4.85;1.30;;;;;;;11.76;90.05;100546.41;5010659;28;20050;-47
2023/09/27 02:32:23;;;;;;;6.95;1.30;;;;;;;11.75;89.93;100542.88;5012171;28;20037;-45
2023/09/27 02:34:51;;;;;;;6.10;1.10;;;;;;;11.75;90.05;100542.88;5013029;28;20042;-45
2023/09/27 02:37:20;;;;;;;10.00;1.48;;;;;;;11.76;90.17;100538.09;5012364;28;20052;-48
2023/09/27 02:39:47;;;;;;;8.82;3.00;;;;;;;11.77;90.12;100539.72;5012268;28;20066;-46
2023/09/27 02:42:16;;;;;;;12.73;1.30;;;;;;;11.76;90.13;100527.81;5012451;28;20056;-45
2023/09/27 02:44:43;;;;;;;4.57;1.33;;;;;;;11.77;90.14;100536.94;5011292;28;20463;-45
2023/09/27 02:47:09;;;;;;;8.80;1.52;;;;;;;11.76;90.30;100527.81;4990723;28;20130;-48
2023/09/27 02:49:37;;;;;;;6.93;1.35;;;;;;;11.78;90.36;100527.47;5011534;28;20148;-45
2023/09/27 02:52:06;;;;;;;6.55;1.30;;;;;;;11.81;90.55;100518.44;5011565;28;20058;-45
2023/09/27 02:54:33;;;;;;;10.60;2.17;;;;;;;11.81;90.48;100518.44;5010308;28;20499;-45
2023/09/27 02:57:00;;;;;;;10.80;3.58;;;;;;;11.82;90.39;100514.47;5011678;28;20042;-46
2023/09/27 02:59:29;;;;;;;7.80;1.65;;;;;;;11.83;90.94;100516.09;5006525;28;20050;-46
2023/09/27 03:01:56;;;;;;;11.13;2.20;;;;;;;11.86;91.03;100509.84;5100466;23;20054;-46
2023/09/27 03:04:23;;;;;;;6.93;2.33;;;;;;;11.88;91.44;100501.97;5008480;28;20060;-45
2023/09/27 03:06:50;;;;;;;8.00;1.60;;;;;;;11.91;91.53;100506.78;5011807;28;20054;-45
2023/09/27 03:09:16;;;;;;;11.02;1.63;;;;;;;11.93;91.62;100487.81;5011591;28;20380;-45
2023/09/27 03:11:43;;;;;;;11.48;2.53;;;;;;;11.94;91.94;100493.00;5011495;28;20053;-46
2023/09/27 03:14:10;;;;;;;9.00;2.22;;;;;;;11.96;92.10;100492.66;5012339;28;20042;-45
2023/09/27 03:16:38;;;;;;;13.65;2.67;;;;;;;11.97;92.35;100486.72;5012432;28;20073;-44
2023/09/27 03:19:04;;;;;;;10.90;1.90;;;;;;;11.99;92.48;100470.50;5012071;28;20085;-46
2023/09/27 03:21:31;;;;;;;13.10;1.90;;;;;;;12.02;92.86;100474.56;5008206;28;21449;-45
2023/09/27 03:23:59;;;;;;;18.35;3.10;;;;;;;12.04;93.09;100453.63;5010067;28;20041;-45
2023/09/27 03:26:26;;;;;;;13.05;2.30;;;;;;;12.06;93.27;100459.59;5012091;28;20053;-45
2023/09/27 03:28:53;;;;;;;13.23;2.63;;;;;;;12.10;93.31;100454.09;5012060;28;20120;-45
2023/09/27 03:31:21;;;;;;;16.08;2.60;;;;;;;12.14;93.72;100455.00;5011686;28;22241;-45
2023/09/27 03:33:48;;;;;;;11.90;1.88;;;;;;;12.18;94.17;100467.78;5011505;28;20041;-45
2023/09/27 03:36:15;;;;;;;10.25;2.80;;;;;;;12.21;94.13;100455.16;5010636;28;20073;-45
2023/09/27 03:38:43;;;;;;;13.25;2.45;;;;;;;12.23;94.24;100466.72;5010073;28;20503;-45
2023/09/27 03:41:11;;;;;;;15.52;2.70;;;;;;;12.23;94.64;100450.84;5008358;28;20121;-45
2023/09/27 03:43:39;;;;;;;12.52;2.05;;;;;;;12.23;94.68;100442.53;5010539;28;20462;-45
2023/09/27 03:46:06;;;;;;;15.45;2.67;;;;;;;12.24;95.27;100443.31;5010761;28;20060;-45
2023/09/27 03:48:34;;;;;;;15.23;3.10;;;;;;;12.26;95.37;100435.44;5011860;28;20121;-45
2023/09/27 03:51:01;;;;;;;14.45;2.90;;;;;;;12.28;95.73;100432.31;5010502;28;20041;-45
2023/09/27 03:53:28;;;;;;;26.85;4.65;;;;;;;12.30;95.65;100422.44;5011412;28;20127;-45
2023/09/27 03:55:56;;;;;;;10.10;1.80;;;;;;;12.31;96.06;100426.81;5011549;28;20499;-45
2023/09/27 03:58:23;;;;;;;13.27;2.08;;;;;;;12.31;96.22;100426.81;5010295;28;20037;-45
2023/09/27 04:00:50;;;;;;;18.20;2.75;;;;;;;12.32;96.78;100414.56;5008144;28;20089;-45
2023/09/27 04:03:18;;;;;;;20.42;2.60;;;;;;;12.33;97.16;100418.13;5011386;28;20060;-47
2023/09/27 04:05:45;;;;;;;16.10;2.70;;;;;;;12.34;97.37;100417.75;5010892;28;20464;-45
2023/09/27 04:08:11;;;;;;;18.08;3.08;;;;;;;12.33;97.49;100396.75;5010839;28;20046;-45
2023/09/27 04:10:38;;;;;;;12.90;2.65;;;;;;;12.33;97.70;100380.09;4990831;28;20451;-46
2023/09/27 04:13:20;;;;;;;21.73;3.08;;;;;;;12.33;98.13;100380.09;5005880;28;20132;-46
2023/09/27 04:15:49;;;;;;;19.40;2.72;;;;;;;12.34;98.77;100381.69;5008201;28;20113;-44
2023/09/27 04:18:16;;;;;;;18.00;2.65;;;;;;;12.36;98.85;100384.09;5006268;28;20042;-45
2023/09/27 04:20:43;;;;;;;21.85;4.50;;;;;;;12.40;99.25;100390.50;5008766;28;20046;-45
2023/09/27 04:23:11;;;;;;;15.63;2.60;;;;;;;12.42;99.47;100382.63;5006336;28;20050;-45
2023/09/27 04:25:38;;;;;;;17.60;2.67;;;;;;;12.44;99.49;100367.22;5003972;28;20053;-46
2023/09/27 04:28:05;;;;;;;12.10;2.67;;;;;;;12.44;99.75;100353.34;5006343;28;20050;-46
2023/09/27 04:30:32;;;;;;;25.50;3.70;;;;;;;12.45;100.00;100338.28;5003310;28;20447;-46
2023/09/27 04:33:00;;;;;;;16.08;2.35;;;;;;;12.44;100.00;100320.03;4980158;28;20050;-45
2023/09/27 04:35:26;;;;;;;17.92;3.50;;;;;;;12.43;100.00;100321.19;5006113;28;20045;-45
2023/09/27 04:37:53;;;;;;;19.60;2.83;;;;;;;12.44;100.00;100308.13;5008017;28;20402;-47
2023/09/27 04:40:20;;;;;;;15.70;2.20;;;;;;;12.44;100.00;100305.34;5004849;28;20065;-50
2023/09/27 04:42:48;;;;;;;16.42;2.75;;;;;;;12.45;100.00;100310.50;5006653;28;20056;-45
2023/09/27 04:45:15;;;;;;;17.42;3.70;;;;;;;12.47;100.00;100312.94;5005414;28;20065;-45
2023/09/27 04:47:44;;;;;;;21.48;3.40;;;;;;;12.50;100.00;100314.94;5006303;28;20034;-45
2023/09/27 04:50:12;;;;;;;18.10;2.88;;;;;;;12.56;100.00;100316.25;5004057;28;20096;-47
2023/09/27 04:52:39;;;;;;;23.23;4.15;;;;;;;12.62;100.00;100309.25;5003652;28;20042;-46
2023/09/27 04:55:08;;;;;;;21.38;3.00;;;;;;;12.65;100.00;100300.97;5006854;28;20046;-49
2023/09/27 04:57:36;;;;;;;16.15;3.08;;;;;;;12.68;100.00;100286.31;5005551;28;20120;-46
2023/09/27 05:00:04;;;;;;;21.98;3.47;;;;;;;12.71;100.00;100284.78;5004507;28;20752;-45
2023/09/27 05:02:30;;;;;;;21.15;4.25;;;;;;;12.76;100.00;100265.84;4985563;28;20527;-45
2023/09/27 05:04:58;;;;;;;29.55;4.60;;;;;;;12.78;100.00;100263.50;5003006;28;20135;-52
2023/09/27 05:07:24;;;;;;;23.23;5.15;;;;;;;12.83;100.00;100259.59;5005257;28;20121;-45
2023/09/27 05:09:53;;;;;;;13.07;3.10;;;;;;;12.86;100.00;100263.63;5004978;28;20764;-46
2023/09/27 05:12:20;;;;;;;24.20;3.33;;;;;;;12.90;100.00;100272.78;5007606;28;20053;-45
2023/09/27 05:14:47;;;;;;;21.33;3.85;;;;;;;12.94;100.00;100257.00;4979020;28;20411;-45
2023/09/27 05:17:14;;;;;;;23.73;4.15;;;;;;;12.97;100.00;100247.94;5003605;28;20108;-46
2023/09/27 05:19:41;;;;;;;23.60;4.57;;;;;;;13.00;100.00;100247.19;5009614;28;20496;-45
2023/09/27 05:22:08;;;;;;;20.17;3.22;;;;;;;13.04;100.00;100231.34;5009223;28;20052;-45
2023/09/27 05:24:38;;;;;;;19.70;4.18;;;;;;;13.08;100.00;100226.69;5004259;28;20046;-45
2023/09/27 05:27:07;;;;;;;22.85;4.05;;;;;;;13.11;100.00;100232.28;5004398;28;20470;-45
2023/09/27 05:29:34;;;;;;;21.27;3.90;;;;;;;13.14;100.00;100237.09;5006466;28;20120;-45
2023/09/27 05:32:02;;;;;;;22.65;4.32;;;;;;;13.18;100.00;100242.72;5007112;28;20062;-45
2023/09/27 05:34:31;;;;;;;20.13;4.95;;;;;;;13.20;100.00;100227.28;5003349;28;20050;-47
2023/09/27 05:36:58;;;;;;;29.48;6.18;;;;;;;13.24;100.00;100235.66;5008254;28;20044;-45
2023/09/27 05:39:25;;;;;;;22.70;3.88;;;;;;;13.27;100.00;100246.00;5004264;28;20046;-45
2023/09/27 05:41:52;;;;;;;19.83;6.72;;;;;;;13.31;100.00;100242.13;5007120;28;20052;-46
2023/09/27 05:44:19;;;;;;;22.73;4.22;;;;;;;13.34;100.00;100235.00;5006595;28;20063;-45
2023/09/27 05:46:46;;;;;;;20.55;3.88;;;;;;;13.36;100.00;100254.91;5007642;28;20057;-45
2023/09/27 05:49:14;;;;;;;16.92;3.17;;;;;;;13.38;100.00;100249.75;5006781;28;20042;-45
2023/09/27 05:51:41;;;;;;;24.50;3.38;;;;;;;13.40;100.00;100239.06;5004082;28;20041;-45
2023/09/27 05:54:08;;;;;;;19.23;4.38;;;;;;;13.42;100.00;100242.28;5003599;28;20041;-45
2023/09/27 05:56:37;;;;;;;23.23;3.15;;;;;;;13.43;100.00;100250.22;5007278;28;20041;-46
2023/09/27 05:59:11;;;;;;;16.05;2.88;;;;;;;13.44;100.00;100245.47;5002266;28;20073;-47
2023/09/27 06:01:39;;;;;;;23.35;4.57;;;;;;;13.45;100.00;100235.94;4969585;28;20065;-47
2023/09/27 06:04:06;;;;;;;23.10;3.17;;;;;;;13.47;100.00;100247.50;4969890;28;20176;-49
2023/09/27 06:06:34;;;;;;;18.20;3.03;;;;;;;13.49;100.00;100239.59;5001334;28;20407;-46
2023/09/27 06:09:09;;;;;;;24.92;3.35;;;;;;;13.49;100.00;100234.03;4987394;28;20451;-45
2023/09/27 06:11:36;;;;;;;24.65;3.75;;;;;;;13.51;100.00;100217.75;5003201;28;20052;-45
2023/09/27 06:14:10;;;;;;;18.90;3.78;;;;;;;13.51;100.00;100206.63;4999346;28;20097;-44
2023/09/27 06:16:39;;;;;;;19.42;3.80;;;;;;;13.53;100.00;100220.19;5003295;28;20499;-45
2023/09/27 06:19:06;;;;;;;20.50;6.15;;;;;;;13.54;100.00;100217.00;5003447;28;20046;-45
2023/09/27 06:21:33;;;;;;;28.55;7.03;;;;;;;13.56;100.00;100228.53;5003183;28;20057;-46
2023/09/27 06:24:00;;;;;;;34.50;11.85;;;;;;;13.58;100.00;100230.97;5005759;28;20519;-47
2023/09/27 06:26:27;;;;;;;38.03;13.68;;;;;;;13.60;100.00;100209.94;5004715;28;20080;-45
2023/09/27 06:28:55;;;;;;;28.67;7.88;;;;;;;13.61;100.00;100207.97;5004277;28;20116;-46
2023/09/27 06:31:22;;;;;;;27.15;6.63;;;;;;;13.60;100.00;100203.56;5003764;28;20077;-45
2023/09/27 06:33:51;;;;;;;17.65;5.00;;;;;;;13.60;100.00;100193.25;5005494;28;20123;-47
2023/09/27 06:36:20;;;;;;;23.75;5.05;;;;;;;13.61;100.00;100194.06;5003976;28;20947;-45
2023/09/27 06:38:47;;;;;;;21.70;4.03;;;;;;;13.62;100.00;100190.88;4976144;28;20050;-46
2023/09/27 06:41:15;;;;;;;15.68;3.85;;;;;;;13.63;100.00;100186.13;4975466;28;20248;-45
2023/09/27 06:43:44;;;;;;;19.40;4.07;;;;;;;13.65;100.00;100178.19;4975539;28;20050;-47
2023/09/27 06:46:12;;;;;;;30.33;5.47;;;;;;;13.67;100.00;100170.25;4976396;28;20572;-47
2023/09/27 06:48:41;;;;;;;26.10;5.47;;;;;;;13.69;100.00;100160.34;4979507;28;20125;-47
2023/09/27 06:51:10;;;;;;;27.10;5.10;;;;;;;13.72;100.00;100164.34;4979995;28;20046;-48
2023/09/27 06:53:38;;;;;;;24.77;4.13;;;;;;;13.72;100.00;100170.72;4978464;28;20050;-44
2023/09/27 06:56:06;;;;;;;15.68;4.55;;;;;;;13.73;100.00;100152.06;4981892;28;21371;-44
2023/09/27 06:58:33;;;;;;;26.50;5.40;;;;;;;13.74;100.00;100159.25;4979956;28;20120;-46
2023/09/27 07:01:00;;;;;;;18.45;4.90;;;;;;;13.75;100.00;100142.16;4978381;28;20046;-47
2023/09/27 07:03:29;;;;;;;38.72;5.60;;;;;;;13.75;100.00;100125.47;4979095;28;20042;-49
2023/09/27 07:05:57;;;;;;;25.63;4.68;;;;;;;13.77;100.00;100117.53;4981246;28;20160;-45
2023/09/27 07:08:24;;;;;;;15.05;5.72;;;;;;;13.77;100.00;100111.97;4961290;28;20054;-47
2023/09/27 07:10:51;;;;;;;22.85;5.20;;;;;;;13.78;100.00;100116.34;4976015;28;20064;-45
2023/09/27 07:13:18;;;;;;;23.73;3.75;;;;;;;13.79;100.00;100112.38;4977499;28;20187;-51
2023/09/27 07:15:48;;;;;;;19.40;4.20;;;;;;;13.78;100.00;100121.91;4975295;28;20042;-45
2023/09/27 07:18:15;;;;;;;27.85;5.10;;;;;;;13.80;100.00;100119.53;4974375;28;20064;-49
2023/09/27 07:20:42;;;;;;;32.15;4.50;;;;;;;13.83;100.00;100118.78;4975917;28;21812;-47
2023/09/27 07:23:14;;;;;;;26.27;4.95;;;;;;;13.85;100.00;100113.63;4976712;28;20050;-45
2023/09/27 07:25:43;;;;;;;25.10;4.90;;;;;;;13.88;100.00;100104.53;4962397;28;20091;-48
2023/09/27 07:28:11;;;;;;;24.98;5.82;;;;;;;13.88;100.00;100107.31;4977464;28;20057;-48
2023/09/27 07:30:38;;;;;;;20.27;4.32;;;;;;;13.90;100.00;100107.72;4976529;28;20144;-47
2023/09/27 07:33:11;;;;;;;12.32;3.63;;;;;;;13.91;100.00;100089.03;4985705;28;20041;-46
2023/09/27 07:35:43;;;;;;;16.27;4.07;;;;;;;13.92;100.00;100085.09;4994215;28;20046;-47
2023/09/27 07:38:13;;;;;;;41.22;7.88;;;;;;;13.91;100.00;100064.81;5011681;28;20054;-45
2023/09/27 07:40:46;;;;;;;20.38;5.03;;;;;;;13.90;100.00;100059.59;5008786;28;20046;-47
2023/09/27 07:43:15;;;;;;;23.30;5.45;;;;;;;13.92;100.00;100054.47;5009361;28;20085;-49
2023/09/27 07:45:44;;;;;;;20.58;4.60;;;;;;;13.92;100.00;100048.91;5003497;28;20101;-45
2023/09/27 07:48:11;;;;;;;21.02;5.13;;;;;;;13.91;100.00;100042.53;5008422;28;20053;-47
2023/09/27 07:50:39;;;;;;;20.33;4.55;;;;;;;13.92;100.00;100046.94;4990645;28;20061;-47
2023/09/27 07:53:08;;;;;;;21.42;4.32;;;;;;;13.93;100.00;100040.16;5006841;28;20132;-50
2023/09/27 07:55:50;;;;;;;19.02;4.60;;;;;;;13.93;100.00;100031.00;5007913;28;20439;-46
2023/09/27 07:58:18;;;;;;;25.27;5.28;;;;;;;13.93;100.00;100017.91;5006630;28;20044;-47
2023/09/27 08:00:45;;;;;;;23.95;5.30;;;;;;;13.96;100.00;100010.75;5003694;28;20057;-47
2023/09/27 08:03:13;;;;;;;26.42;5.88;;;;;;;13.96;100.00;100008.78;5007707;28;20057;-51
2023/09/27 08:05:45;;;;;;;26.83;4.63;;;;;;;13.97;100.00;100007.63;5002902;28;20050;-47
2023/09/27 08:08:13;;;;;;;25.65;4.72;;;;;;;13.98;100.00;100003.63;5008816;28;20137;-53
2023/09/27 08:10:45;;;;;;;23.73;5.30;;;;;;;13.98;100.00;99986.94;5010222;28;20096;-44
2023/09/27 08:13:13;;;;;;;26.58;7.32;;;;;;;13.97;100.00;99990.91;5010532;28;20054;-46
2023/09/27 08:15:41;;;;;;;23.48;4.65;;;;;;;13.97;100.00;99985.34;5007383;28;20050;-46
2023/09/27 08:18:08;;;;;;;21.17;5.30;;;;;;;13.98;100.00;99986.13;5005599;28;20120;-49
2023/09/27 08:20:35;;;;;;;27.10;4.97;;;;;;;13.97;100.00;99962.28;5006089;28;20108;-45
2023/09/27 08:23:04;;;;;;;27.63;5.78;;;;;;;13.98;100.00;99963.84;5005485;28;20050;-44
2023/09/27 08:25:31;;;;;;;23.45;6.25;;;;;;;13.97;100.00;99962.28;5007052;28;20053;-45
2023/09/27 08:27:58;;;;;;;30.42;6.97;;;;;;;13.96;100.00;99950.34;5009869;28;20045;-47
2023/09/27 08:30:25;;;;;;;37.17;5.55;;;;;;;13.96;100.00;99927.28;5005593;28;20077;-51
2023/09/27 08:32:52;;;;;;;24.02;6.05;;;;;;;13.96;100.00;99928.09;5006210;28;20054;-46
2023/09/27 08:35:19;;;;;;;37.58;7.05;;;;;;;13.95;100.00;99918.13;5006850;28;20038;-46
2023/09/27 08:37:46;;;;;;;27.80;5.65;;;;;;;13.93;100.00;99920.50;5008871;28;20147;-47
2023/09/27 08:40:13;;;;;;;22.20;5.45;;;;;;;13.93;100.00;99917.72;5008124;28;20049;-49
2023/09/27 08:42:42;;;;;;;40.20;8.80;;;;;;;13.91;100.00;99900.63;5006681;28;20050;-46
2023/09/27 08:45:13;;;;;;;28.42;7.20;;;;;;;13.91;100.00;99897.84;5004485;28;20479;-45
2023/09/27 08:47:42;;;;;;;33.10;5.90;;;;;;;13.91;100.00;99864.44;5006785;28;20132;-45
2023/09/27 08:50:13;;;;;;;25.63;5.60;;;;;;;13.90;100.00;99843.38;5009788;28;20041;-46
2023/09/27 08:52:48;;;;;;;39.40;7.10;;;;;;;13.91;100.00;99831.06;5007113;28;20041;-46
2023/09/27 08:55:17;;;;;;;31.20;7.05;;;;;;;13.93;100.00;99822.31;4991558;28;20042;-47
2023/09/27 08:57:51;;;;;;;26.25;5.07;;;;;;;13.92;100.00;99826.28;5008483;28;20041;-49
2023/09/27 09:00:26;;;;;;;33.78;6.15;;;;;;;13.89;100.00;99805.63;5008167;28;20451;-46
2023/09/27 09:02:58;;;;;;;34.70;8.02;;;;;;;13.89;100.00;99811.19;5004639;28;20062;-46
2023/09/27 09:05:29;;;;;;;26.10;5.85;;;;;;;13.89;100.00;99805.63;5005466;28;20068;-45
2023/09/27 09:07:59;;;;;;;33.90;6.50;;;;;;;13.90;100.00;99795.25;5005383;28;20046;-45
2023/09/27 09:10:27;;;;;;;33.85;7.72;;;;;;;13.91;100.00;99799.66;5007087;28;20046;-47
2023/09/27 09:12:55;;;;;;;38.50;6.30;;;;;;;13.90;100.00;99786.91;5005896;28;20046;-46
2023/09/27 09:15:40;;;;;;;26.15;6.20;;;;;;;13.91;100.00;99796.88;5006759;28;20049;-46
2023/09/27 09:18:14;;;;;;;27.35;7.43;;;;;;;13.90;100.00;99782.16;5007466;28;20077;-51
2023/09/27 09:20:55;;;;;;;34.53;6.38;;;;;;;13.90;100.00;99761.88;5004761;28;20049;-45
2023/09/27 09:23:33;;;;;;;28.52;6.82;;;;;;;13.89;100.00;99741.63;5004896;28;20042;-45
2023/09/27 09:26:03;;;;;;;30.90;6.63;;;;;;;13.91;100.00;99735.66;5004817;28;20579;-48
2023/09/27 09:28:30;;;;;;;34.10;6.05;;;;;;;13.90;100.00;99723.72;5008665;28;20104;-45
2023/09/27 09:30:57;;;;;;;27.85;6.32;;;;;;;13.91;100.00;99708.63;5003991;28;20064;-47
2023/09/27 09:33:24;;;;;;;33.03;6.43;;;;;;;13.91;100.00;99725.31;5005954;28;20037;-48
2023/09/27 09:35:52;;;;;;;35.42;6.70;;;;;;;13.92;100.00;99704.66;5005536;28;20133;-46
2023/09/27 09:38:25;;;;;;;45.00;9.38;;;;;;;13.92;100.00;99682.41;5007864;28;20041;-46
2023/09/27 09:40:54;;;;;;;31.83;6.90;;;;;;;13.94;100.00;99657.75;5008115;28;20097;-45
2023/09/27 09:43:35;;;;;;;34.03;7.13;;;;;;;13.95;100.00;99659.31;5008700;28;20148;-47
2023/09/27 09:46:06;;;;;;;22.97;4.77;;;;;;;13.94;100.00;99643.84;5007895;28;20077;-46
2023/09/27 09:48:34;;;;;;;31.58;5.47;;;;;;;13.94;100.00;99643.84;5008780;28;20054;-44
2023/09/27 09:51:06;;;;;;;38.30;8.93;;;;;;;13.96;100.00;99623.97;5007622;28;20140;-45
2023/09/27 09:53:38;;;;;;;27.23;7.40;;;;;;;13.97;100.00;99604.09;5006990;28;20408;-48
2023/09/27 09:56:06;;;;;;;31.40;6.97;;;;;;;13.99;100.00;99592.56;5002363;28;20092;-45
2023/09/27 09:59:03;;;;;;;30.25;6.10;;;;;;;13.99;100.00;99587.78;5008266;28;20053;-44
2023/09/27 10:01:38;;;;;;;39.38;8.10;;;;;;;13.98;100.00;99580.63;5007603;28;20089;-44
2023/09/27 10:04:07;;;;;;;28.38;7.05;;;;;;;13.97;100.00;99573.50;5006787;28;20060;-46
2023/09/27 10:06:37;;;;;;;32.55;7.10;;;;;;;13.97;100.00;99598.53;5008938;28;20407;-45
2023/09/27 10:09:15;;;;;;;45.15;8.02;;;;;;;13.97;100.00;99592.97;5006222;28;20046;-45
2023/09/27 10:11:44;;;;;;;52.55;9.15;;;;;;;13.95;100.00;99570.28;5003764;28;20313;-44
2023/09/27 10:14:15;;;;;;;45.13;8.85;;;;;;;13.92;100.00;99576.66;5003965;28;20116;-43
2023/09/27 10:16:43;;;;;;;35.88;7.90;;;;;;;13.91;100.00;99558.38;5003230;28;20039;-45
2023/09/27 10:19:10;;;;;;;28.70;6.20;;;;;;;13.89;100.00;99527.38;5008919;28;20499;-47
2023/09/27 10:22:02;;;;;;;44.15;7.85;;;;;;;13.88;100.00;99525.78;5005367;28;20042;-44
2023/09/27 10:24:29;;;;;;;89.97;11.90;;;;;;;13.90;100.00;99515.03;5011564;28;20050;-45
2023/09/27 10:26:56;;;;;;;58.47;9.05;;;;;;;13.91;100.00;99491.59;5007485;28;20077;-44
2023/09/27 10:29:22;;;;;;;42.33;9.05;;;;;;;13.96;100.00;99482.84;5010392;28;20050;-48
2023/09/27 10:31:56;;;;;;;68.40;10.45;;;;;;;14.00;100.00;99478.06;5008409;28;20081;-43
2023/09/27 10:34:29;;;;;;;53.90;10.45;;;;;;;14.04;100.00;99473.31;5010816;28;20049;-45
2023/09/27 10:37:00;;;;;;;42.90;8.35;;;;;;;14.06;100.00;99472.13;5010877;28;20049;-45
2023/09/27 10:39:29;;;;;;;41.65;7.35;;;;;;;14.08;100.00;99439.09;5007070;28;20488;-45
2023/09/27 10:41:56;;;;;;;42.75;8.65;;;;;;;14.09;100.00;99437.91;5010819;28;20052;-44
2023/09/27 10:44:31;;;;;;;55.45;9.88;;;;;;;14.16;100.00;99432.34;5010879;28;20054;-46
2023/09/27 10:47:01;;;;;;;50.00;8.15;;;;;;;14.20;100.00;99394.13;5008413;28;20080;-43
2023/09/27 10:49:38;;;;;;;33.50;6.78;;;;;;;14.22;100.00;99427.94;5009482;28;20393;-46
2023/09/27 10:52:16;;;;;;;45.28;8.82;;;;;;;14.26;100.00;99437.06;5010677;28;20132;-41
2023/09/27 10:54:44;;;;;;;32.35;6.55;;;;;;;14.28;100.00;99427.13;5011974;28;20466;-41
2023/09/27 10:57:14;;;;;;;30.23;5.35;;;;;;;14.32;100.00;99407.66;5008757;28;20041;-43
2023/09/27 10:59:45;;;;;;;54.55;7.57;;;;;;;14.33;100.00;99398.91;5009886;28;20057;-41
2023/09/27 11:02:12;;;;;;;37.88;8.48;;;;;;;14.37;100.00;99394.13;5008384;28;20504;-40
2023/09/27 11:04:40;;;;;;;42.50;7.57;;;;;;;14.40;100.00;99400.88;5006050;28;20136;-41
2023/09/27 11:07:07;;;;;;;37.17;7.65;;;;;;;14.41;100.00;99396.88;5009596;28;20042;-43
2023/09/27 11:09:43;;;;;;;38.35;7.47;;;;;;;14.45;100.00;99381.78;5010998;28;20041;-41
2023/09/27 11:12:10;;;;;;;33.83;6.75;;;;;;;14.48;100.00;99372.56;5012197;28;20096;-40
2023/09/27 11:14:44;;;;;;;31.85;5.40;;;;;;;14.51;100.00;99348.69;5008272;28;20078;-40
2023/09/27 11:17:22;;;;;;;29.17;6.57;;;;;;;14.51;100.00;99374.56;5007546;28;20038;-41
2023/09/27 11:19:50;;;;;;;24.10;5.32;;;;;;;14.53;100.00;99335.94;5008224;28;20073;-41
2023/09/27 11:22:27;;;;;;;37.15;6.22;;;;;;;14.55;100.00;99318.84;5008583;28;20045;-39
2023/09/27 11:24:55;;;;;;;31.70;6.32;;;;;;;14.55;100.00;99297.38;5007126;28;20101;-40